Time;durP1;ratioP1;P1;durP2;ratioP2;P2;SDS_P1;SDS_P2;PMS_P1;PMS_P2;Temp;Humidity;BMP_temperature;BMP_pressure;BME280_temperature;BME280_humidity;BME280_pressure;Samples;Min_cycle;Max_cycle;Signal;HPM_P1;HPM_P2
2023/06/17 00:00:20;;;;;;;11.35;7.95;;;;;;;;;;5022158;28;20088;-77
2023/06/17 00:02:46;;;;;;;12.38;8.38;;;;;;;;;;5021618;28;20107;-76
2023/06/17 00:05:11;;;;;;;14.40;10.00;;;;;;;;;;5021130;28;20038;-77
2023/06/17 00:07:39;;;;;;;13.85;9.50;;;;;;;;;;5007858;28;20490;-77
2023/06/17 00:10:06;;;;;;;11.50;8.90;;;;;;;;;;5025440;28;20049;-77
2023/06/17 00:12:31;;;;;;;11.85;9.63;;;;;;;;;;5028159;28;20057;-76
2023/06/17 00:15:01;;;;;;;14.40;10.45;;;;;;;;;;5024279;28;20037;-76
2023/06/17 00:17:30;;;;;;;13.57;8.88;;;;;;;;;;5021993;28;20052;-76
2023/06/17 00:20:00;;;;;;;17.42;8.95;;;;;;;;;;5029421;28;20573;-76
2023/06/17 00:22:29;;;;;;;12.20;9.70;;;;;;;;;;5030464;28;20045;-76
2023/06/17 00:24:56;;;;;;;13.13;9.15;;;;;;;;;;5013304;28;20041;-78
2023/06/17 00:27:21;;;;;;;11.48;9.02;;;;;;;;;;5010901;28;20041;-75
2023/06/17 00:29:47;;;;;;;14.60;9.57;;;;;;;;;;5027361;28;20727;-76
2023/06/17 00:32:14;;;;;;;12.45;10.13;;;;;;;;;;5037432;28;20045;-76
2023/06/17 00:34:39;;;;;;;13.82;9.95;;;;;;;;;;5028040;28;20052;-76
2023/06/17 00:37:05;;;;;;;15.05;9.35;;;;;;;;;;5009931;28;20052;-76
2023/06/17 00:39:31;;;;;;;12.75;9.73;;;;;;;;;;5026918;28;20099;-75
2023/06/17 00:42:00;;;;;;;12.10;9.80;;;;;;;;;;5024461;28;20042;-77
2023/06/17 00:44:26;;;;;;;13.57;10.07;;;;;;;;;;5040030;28;20048;-76
2023/06/17 00:46:53;;;;;;;14.80;10.50;;;;;;;;;;5009471;28;20414;-75
2023/06/17 00:49:19;;;;;;;13.43;10.70;;;;;;;;;;5021514;28;20079;-73
2023/06/17 00:51:45;;;;;;;12.77;9.98;;;;;;;;;;5029406;28;20041;-73
2023/06/17 00:54:13;;;;;;;12.35;10.50;;;;;;;;;;5021489;28;20529;-74
2023/06/17 00:56:39;;;;;;;14.50;10.45;;;;;;;;;;5021167;28;20323;-74
2023/06/17 00:59:05;;;;;;;12.80;9.95;;;;;;;;;;5020548;28;20465;-73
2023/06/17 01:01:35;;;;;;;13.30;10.18;;;;;;;;;;5027393;28;20312;-73
2023/06/17 01:04:02;;;;;;;12.50;9.98;;;;;;;;;;5019065;28;20128;-74
2023/06/17 01:06:47;;;;;;;15.88;11.02;;;;;;;;;;5020264;28;20053;-74
2023/06/17 01:09:19;;;;;;;16.02;10.90;;;;;;;;;;5018693;28;20041;-74
2023/06/17 01:11:46;;;;;;;12.13;10.00;;;;;;;;;;5019318;28;20050;-75
2023/06/17 01:14:14;;;;;;;17.85;9.45;;;;;;;;;;5002085;28;20125;-75
2023/06/17 01:16:42;;;;;;;20.05;10.25;;;;;;;;;;5006074;28;20156;-73
2023/06/17 01:19:18;;;;;;;12.57;9.38;;;;;;;;;;5022234;28;20033;-73
2023/06/17 01:21:54;;;;;;;11.95;9.98;;;;;;;;;;5020595;28;20049;-74
2023/06/17 01:24:29;;;;;;;12.45;10.52;;;;;;;;;;4996277;28;20049;-73
2023/06/17 01:26:57;;;;;;;12.25;9.77;;;;;;;;;;5020908;28;20462;-73
2023/06/17 01:29:32;;;;;;;15.27;11.23;;;;;;;;;;5022189;28;20053;-73
2023/06/17 01:31:58;;;;;;;12.20;10.43;;;;;;;;;;5017642;28;20049;-72
2023/06/17 01:34:43;;;;;;;17.15;11.07;;;;;;;;;;5015227;28;20053;-75
2023/06/17 01:37:11;;;;;;;14.50;11.07;;;;;;;;;;5015652;28;20712;-73
2023/06/17 01:39:39;;;;;;;12.00;9.85;;;;;;;;;;5021784;28;20040;-73
2023/06/17 01:42:09;;;;;;;13.23;10.23;;;;;;;;;;5022527;28;20072;-73
2023/06/17 01:44:36;;;;;;;15.60;10.23;;;;;;;;;;5003834;28;20053;-71
2023/06/17 01:47:02;;;;;;;16.08;12.27;;;;;;;;;;5020795;28;20419;-71
2023/06/17 01:49:28;;;;;;;17.38;11.93;;;;;;;;;;5015763;28;20481;-72
2023/06/17 01:51:53;;;;;;;14.80;11.52;;;;;;;;;;5020615;28;20050;-74
2023/06/17 01:54:21;;;;;;;16.42;11.85;;;;;;;;;;5019421;28;20083;-71
2023/06/17 01:56:46;;;;;;;13.95;11.20;;;;;;;;;;5020170;28;20045;-72
2023/06/17 01:59:12;;;;;;;15.75;12.20;;;;;;;;;;5019164;28;20041;-70
2023/06/17 02:01:37;;;;;;;16.48;12.20;;;;;;;;;;5019994;28;20532;-71
2023/06/17 02:04:03;;;;;;;14.48;10.90;;;;;;;;;;5020369;28;20045;-72
2023/06/17 02:06:28;;;;;;;15.80;12.35;;;;;;;;;;5019995;28;20057;-72
2023/06/17 02:08:54;;;;;;;15.32;12.63;;;;;;;;;;5018863;28;20052;-73
2023/06/17 02:11:19;;;;;;;16.70;12.57;;;;;;;;;;5020188;28;20053;-73
2023/06/17 02:13:45;;;;;;;17.15;11.77;;;;;;;;;;5021884;28;20061;-72
2023/06/17 02:16:10;;;;;;;18.00;12.20;;;;;;;;;;5021176;28;20502;-72
2023/06/17 02:18:36;;;;;;;15.93;12.32;;;;;;;;;;5018913;28;20406;-73
2023/06/17 02:21:02;;;;;;;14.32;11.18;;;;;;;;;;5019006;28;20052;-73
2023/06/17 02:23:28;;;;;;;17.98;10.80;;;;;;;;;;5021108;28;20048;-72
2023/06/17 02:25:55;;;;;;;17.60;10.85;;;;;;;;;;5019796;28;20054;-73
2023/06/17 02:28:20;;;;;;;13.55;10.65;;;;;;;;;;5020399;28;20539;-73
2023/06/17 02:30:46;;;;;;;13.00;11.15;;;;;;;;;;5018256;28;20160;-73
2023/06/17 02:33:12;;;;;;;14.30;11.93;;;;;;;;;;5021208;28;20052;-73
2023/06/17 02:35:38;;;;;;;15.68;11.82;;;;;;;;;;5020900;28;20132;-73
2023/06/17 02:38:03;;;;;;;15.82;12.18;;;;;;;;;;5020627;28;20144;-72
2023/06/17 02:40:29;;;;;;;15.98;11.63;;;;;;;;;;5019254;28;20996;-72
2023/06/17 02:42:54;;;;;;;14.70;11.48;;;;;;;;;;5019099;28;20037;-73
2023/06/17 02:45:20;;;;;;;15.93;11.55;;;;;;;;;;5021062;28;20064;-72
2023/06/17 02:47:46;;;;;;;16.42;11.63;;;;;;;;;;5018838;28;20057;-73
2023/06/17 02:50:11;;;;;;;19.42;12.00;;;;;;;;;;5017178;28;20037;-72
2023/06/17 02:52:37;;;;;;;14.18;11.43;;;;;;;;;;5017979;28;20053;-73
2023/06/17 02:55:05;;;;;;;15.40;10.93;;;;;;;;;;5019469;28;20034;-72
2023/06/17 02:57:31;;;;;;;13.40;11.50;;;;;;;;;;5020692;28;20044;-73
2023/06/17 02:59:56;;;;;;;15.35;10.63;;;;;;;;;;5019437;28;20045;-74
2023/06/17 03:02:21;;;;;;;14.27;10.32;;;;;;;;;;5001785;28;20091;-72
2023/06/17 03:04:48;;;;;;;15.07;10.93;;;;;;;;;;5018821;28;20067;-73
2023/06/17 03:07:15;;;;;;;18.88;11.13;;;;;;;;;;5019283;28;20410;-72
2023/06/17 03:09:41;;;;;;;16.67;10.55;;;;;;;;;;5018590;28;20033;-74
2023/06/17 03:12:07;;;;;;;13.30;9.55;;;;;;;;;;5019809;28;20045;-74
2023/06/17 03:14:33;;;;;;;14.27;10.93;;;;;;;;;;5034872;28;20041;-73
2023/06/17 03:17:02;;;;;;;13.57;11.50;;;;;;;;;;5003179;28;20049;-73
2023/06/17 03:19:29;;;;;;;14.70;11.07;;;;;;;;;;5019117;28;20060;-75
2023/06/17 03:21:54;;;;;;;16.00;11.55;;;;;;;;;;5019052;28;20494;-73
2023/06/17 03:24:23;;;;;;;16.77;11.60;;;;;;;;;;5018313;28;20051;-73
2023/06/17 03:26:48;;;;;;;16.70;12.23;;;;;;;;;;5018009;28;20053;-74
2023/06/17 03:29:15;;;;;;;14.23;11.57;;;;;;;;;;5018734;28;20052;-75
2023/06/17 03:31:41;;;;;;;14.43;11.27;;;;;;;;;;5031097;28;20045;-75
2023/06/17 03:34:08;;;;;;;18.73;11.50;;;;;;;;;;5018205;28;21626;-75
2023/06/17 03:36:34;;;;;;;19.17;11.43;;;;;;;;;;5017999;28;20045;-75
2023/06/17 03:38:59;;;;;;;15.68;10.98;;;;;;;;;;5014133;28;20048;-73
2023/06/17 03:41:29;;;;;;;16.42;11.55;;;;;;;;;;5016207;28;20042;-73
2023/06/17 03:43:54;;;;;;;13.93;11.43;;;;;;;;;;5016516;28;20379;-73
2023/06/17 03:46:20;;;;;;;15.18;11.07;;;;;;;;;;5015930;28;20521;-73
2023/06/17 03:48:46;;;;;;;13.48;11.43;;;;;;;;;;5017406;28;20048;-73
2023/06/17 03:51:12;;;;;;;14.35;11.63;;;;;;;;;;5017813;28;20960;-73
2023/06/17 03:53:38;;;;;;;14.00;11.48;;;;;;;;;;5017330;28;20140;-72
2023/06/17 03:56:04;;;;;;;14.52;11.40;;;;;;;;;;5016607;28;20203;-72
2023/06/17 03:58:31;;;;;;;12.55;10.38;;;;;;;;;;5014749;28;20133;-72
2023/06/17 04:00:56;;;;;;;13.60;10.50;;;;;;;;;;5016382;28;20049;-71
2023/06/17 04:03:24;;;;;;;14.02;10.60;;;;;;;;;;5017107;28;20044;-72
2023/06/17 04:05:54;;;;;;;13.32;11.27;;;;;;;;;;5016226;28;20037;-71
2023/06/17 04:08:22;;;;;;;15.30;10.50;;;;;;;;;;5015867;28;20037;-71
2023/06/17 04:10:48;;;;;;;16.30;10.30;;;;;;;;;;5015632;28;20056;-71
2023/06/17 04:13:14;;;;;;;13.50;9.70;;;;;;;;;;5016581;28;20137;-71
2023/06/17 04:15:45;;;;;;;13.00;9.20;;;;;;;;;;5024804;28;20037;-72
2023/06/17 04:18:10;;;;;;;12.40;9.52;;;;;;;;;;5016734;28;20041;-72
2023/06/17 04:20:36;;;;;;;12.38;8.57;;;;;;;;;;5015229;28;20056;-72
2023/06/17 04:23:01;;;;;;;15.82;8.75;;;;;;;;;;5016989;28;20053;-72
2023/06/17 04:25:32;;;;;;;13.52;8.50;;;;;;;;;;5016570;28;20037;-72
2023/06/17 04:28:00;;;;;;;9.80;8.00;;;;;;;;;;5015934;28;20041;-72
2023/06/17 04:30:28;;;;;;;10.80;7.45;;;;;;;;;;5025213;28;20038;-72
2023/06/17 04:32:55;;;;;;;12.23;8.13;;;;;;;;;;5032727;28;20041;-72
2023/06/17 04:35:21;;;;;;;12.35;7.97;;;;;;;;;;5033597;28;20048;-72
2023/06/17 04:37:53;;;;;;;9.32;7.88;;;;;;;;;;5033245;28;20044;-72
2023/06/17 04:40:20;;;;;;;11.07;7.70;;;;;;;;;;5015843;28;20120;-72
2023/06/17 04:42:47;;;;;;;9.73;8.07;;;;;;;;;;5017460;28;20049;-73
2023/06/17 04:45:13;;;;;;;11.00;8.02;;;;;;;;;;5015648;28;20037;-72
2023/06/17 04:47:38;;;;;;;11.73;7.50;;;;;;;;;;5015064;28;20049;-72
2023/06/17 04:50:04;;;;;;;9.23;7.78;;;;;;;;;;4999773;28;20418;-72
2023/06/17 04:52:31;;;;;;;8.30;7.47;;;;;;;;;;5016027;28;20065;-72
2023/06/17 04:54:58;;;;;;;9.98;7.90;;;;;;;;;;5018182;28;20557;-72
2023/06/17 04:57:23;;;;;;;9.68;7.13;;;;;;;;;;5020370;28;20084;-72
2023/06/17 04:59:51;;;;;;;14.07;7.03;;;;;;;;;;5019056;28;20046;-73
2023/06/17 05:02:18;;;;;;;10.95;6.63;;;;;;;;;;5002882;28;20052;-74
2023/06/17 05:04:44;;;;;;;9.30;6.60;;;;;;;;;;5035225;28;20045;-73
2023/06/17 05:07:10;;;;;;;6.90;5.93;;;;;;;;;;5002650;28;20077;-74
2023/06/17 05:09:38;;;;;;;6.47;5.82;;;;;;;;;;5036325;28;20046;-73
2023/06/17 05:12:04;;;;;;;6.13;5.13;;;;;;;;;;5003398;28;20107;-74
2023/06/17 05:14:30;;;;;;;8.68;5.03;;;;;;;;;;5003375;28;20048;-74
2023/06/17 05:16:55;;;;;;;8.88;5.75;;;;;;;;;;5016864;28;20410;-72
2023/06/17 05:19:21;;;;;;;6.57;5.47;;;;;;;;;;5019970;28;20041;-74
2023/06/17 05:21:47;;;;;;;7.32;5.20;;;;;;;;;;5035956;28;20038;-74
2023/06/17 05:24:15;;;;;;;8.15;5.05;;;;;;;;;;5034953;28;20042;-75
2023/06/17 05:26:41;;;;;;;6.60;5.28;;;;;;;;;;5034971;28;20046;-75
2023/06/17 05:29:06;;;;;;;6.03;5.43;;;;;;;;;;5018227;28;20056;-75
2023/06/17 05:31:36;;;;;;;6.05;5.45;;;;;;;;;;5017516;28;20091;-76
2023/06/17 05:34:05;;;;;;;6.47;4.68;;;;;;;;;;4998295;28;20045;-75
2023/06/17 05:36:31;;;;;;;6.22;4.78;;;;;;;;;;5027854;28;20533;-75
2023/06/17 05:38:56;;;;;;;6.07;4.68;;;;;;;;;;5001840;28;20069;-75
2023/06/17 05:41:22;;;;;;;12.20;4.93;;;;;;;;;;5019085;28;20509;-75
2023/06/17 05:43:48;;;;;;;6.82;4.80;;;;;;;;;;5035136;28;20035;-75
2023/06/17 05:46:14;;;;;;;10.85;4.55;;;;;;;;;;5004046;28;20068;-75
2023/06/17 05:48:40;;;;;;;8.68;4.97;;;;;;;;;;5024516;28;20532;-75
2023/06/17 05:51:06;;;;;;;5.93;5.05;;;;;;;;;;5019627;28;20045;-74
2023/06/17 05:53:31;;;;;;;10.35;5.03;;;;;;;;;;5001817;28;20053;-74
2023/06/17 05:55:57;;;;;;;4.90;4.30;;;;;;;;;;5019591;28;20052;-74
2023/06/17 05:58:22;;;;;;;6.10;5.05;;;;;;;;;;5035153;28;20042;-76
2023/06/17 06:00:57;;;;;;;4.47;4.07;;;;;;;;;;5004662;28;20049;-76
2023/06/17 06:03:23;;;;;;;5.95;4.60;;;;;;;;;;5016145;28;20059;-76
2023/06/17 06:05:48;;;;;;;6.68;4.40;;;;;;;;;;5018422;28;20913;-75
2023/06/17 06:08:13;;;;;;;5.95;4.22;;;;;;;;;;5017478;28;20088;-76
2023/06/17 06:10:39;;;;;;;7.20;5.00;;;;;;;;;;5017869;28;20045;-75
2023/06/17 06:13:05;;;;;;;5.50;4.43;;;;;;;;;;5005480;28;20037;-76
2023/06/17 06:15:32;;;;;;;9.43;4.28;;;;;;;;;;4999078;28;20430;-76
2023/06/17 06:17:58;;;;;;;5.50;4.28;;;;;;;;;;5031380;28;20045;-76
2023/06/17 06:20:23;;;;;;;6.28;4.30;;;;;;;;;;5017824;28;20513;-76
2023/06/17 06:22:49;;;;;;;5.68;4.68;;;;;;;;;;5031903;28;20140;-75
2023/06/17 06:25:14;;;;;;;5.15;4.38;;;;;;;;;;5017580;28;20033;-76
2023/06/17 06:27:40;;;;;;;8.93;4.80;;;;;;;;;;5013827;28;20514;-76
2023/06/17 06:30:07;;;;;;;7.57;4.55;;;;;;;;;;5015956;28;20054;-76
2023/06/17 06:32:37;;;;;;;7.72;4.68;;;;;;;;;;5015277;28;20058;-76
2023/06/17 06:35:04;;;;;;;6.55;4.70;;;;;;;;;;5015409;28;20048;-77
2023/06/17 06:37:29;;;;;;;7.22;4.68;;;;;;;;;;5033464;28;20522;-75
2023/06/17 06:39:55;;;;;;;5.50;4.22;;;;;;;;;;5016537;28;20063;-75
2023/06/17 06:42:22;;;;;;;8.55;4.40;;;;;;;;;;5031158;28;20056;-76
2023/06/17 06:45:04;;;;;;;5.90;4.68;;;;;;;;;;5014575;28;20080;-76
2023/06/17 06:47:30;;;;;;;5.13;4.20;;;;;;;;;;4998570;28;20519;-76
2023/06/17 06:49:56;;;;;;;5.93;4.03;;;;;;;;;;5033008;28;20042;-76
2023/06/17 06:52:21;;;;;;;4.45;4.05;;;;;;;;;;5003982;28;20033;-76
2023/06/17 06:54:47;;;;;;;4.78;4.22;;;;;;;;;;5017235;28;20059;-75
2023/06/17 06:57:12;;;;;;;4.30;3.90;;;;;;;;;;5015846;28;20037;-76
2023/06/17 06:59:38;;;;;;;6.25;4.40;;;;;;;;;;5016935;28;20452;-75
2023/06/17 07:02:04;;;;;;;4.80;4.20;;;;;;;;;;4997562;28;20674;-76
2023/06/17 07:04:30;;;;;;;4.45;4.05;;;;;;;;;;5015511;28;20042;-75
2023/06/17 07:07:02;;;;;;;4.97;4.20;;;;;;;;;;4996449;28;20102;-75
2023/06/17 07:09:32;;;;;;;9.73;3.80;;;;;;;;;;4988315;28;20608;-75
2023/06/17 07:11:58;;;;;;;5.43;3.78;;;;;;;;;;5013531;28;20068;-75
2023/06/17 07:14:23;;;;;;;6.18;3.42;;;;;;;;;;5032054;28;20049;-75
2023/06/17 07:16:49;;;;;;;4.45;3.72;;;;;;;;;;5012149;28;20045;-75
2023/06/17 07:19:15;;;;;;;7.72;3.72;;;;;;;;;;5016011;28;20378;-76
2023/06/17 07:21:40;;;;;;;4.80;3.33;;;;;;;;;;4995099;28;20045;-77
2023/06/17 07:24:06;;;;;;;4.93;3.85;;;;;;;;;;5013991;28;20091;-76
2023/06/17 07:26:32;;;;;;;5.88;3.53;;;;;;;;;;5011351;28;20065;-78
2023/06/17 07:29:01;;;;;;;5.50;3.10;;;;;;;;;;4997911;28;20175;-76
2023/06/17 07:31:28;;;;;;;4.05;3.22;;;;;;;;;;5019718;28;20045;-75
2023/06/17 07:33:54;;;;;;;6.60;3.03;;;;;;;;;;5017868;28;20441;-77
2023/06/17 07:36:20;;;;;;;7.47;2.90;;;;;;;;;;5012458;28;20464;-77
2023/06/17 07:38:45;;;;;;;4.18;3.00;;;;;;;;;;5021402;28;20045;-76
2023/06/17 07:41:11;;;;;;;9.10;3.28;;;;;;;;;;5016158;28;20041;-75
2023/06/17 07:43:36;;;;;;;5.28;3.08;;;;;;;;;;5018830;28;20041;-75
2023/06/17 07:46:01;;;;;;;3.90;3.13;;;;;;;;;;5018130;28;20045;-75
2023/06/17 07:48:27;;;;;;;10.25;3.75;;;;;;;;;;5018164;28;20110;-75
2023/06/17 07:50:53;;;;;;;6.60;3.20;;;;;;;;;;5012991;28;20054;-76
2023/06/17 07:53:18;;;;;;;4.35;3.33;;;;;;;;;;5017018;28;20073;-76
2023/06/17 07:55:44;;;;;;;4.90;2.85;;;;;;;;;;5014971;28;20041;-76
2023/06/17 07:58:09;;;;;;;3.92;3.47;;;;;;;;;;5015249;28;20072;-76
2023/06/17 08:00:35;;;;;;;3.88;2.90;;;;;;;;;;5016951;28;20053;-76
2023/06/17 08:03:01;;;;;;;4.60;3.22;;;;;;;;;;5017253;28;20060;-77
2023/06/17 08:05:26;;;;;;;11.23;3.17;;;;;;;;;;5014213;28;20053;-76
2023/06/17 08:07:52;;;;;;;5.75;3.70;;;;;;;;;;5016600;28;20045;-76
2023/06/17 08:10:17;;;;;;;6.70;3.10;;;;;;;;;;5016514;28;20056;-76
2023/06/17 08:12:44;;;;;;;3.40;3.10;;;;;;;;;;5025653;28;20042;-76
2023/06/17 08:15:09;;;;;;;9.02;3.13;;;;;;;;;;5024549;28;20088;-75
2023/06/17 08:17:35;;;;;;;10.07;3.15;;;;;;;;;;5024542;28;20554;-75
2023/06/17 08:20:01;;;;;;;10.77;3.38;;;;;;;;;;5036470;28;20041;-75
2023/06/17 08:22:28;;;;;;;3.70;3.15;;;;;;;;;;5021413;28;20163;-74
2023/06/17 08:24:53;;;;;;;6.13;3.17;;;;;;;;;;5023919;28;20045;-78
2023/06/17 08:27:19;;;;;;;5.63;3.15;;;;;;;;;;5019301;28;20433;-74
2023/06/17 08:29:44;;;;;;;5.15;3.28;;;;;;;;;;5020044;28;20045;-74
2023/06/17 08:32:10;;;;;;;6.75;2.83;;;;;;;;;;5021497;28;20049;-74
2023/06/17 08:34:36;;;;;;;9.35;3.40;;;;;;;;;;5020202;28;20088;-74
2023/06/17 08:37:04;;;;;;;4.28;2.88;;;;;;;;;;5020461;28;20049;-75
2023/06/17 08:39:33;;;;;;;5.57;3.08;;;;;;;;;;5021190;28;20129;-74
2023/06/17 08:41:58;;;;;;;5.05;3.33;;;;;;;;;;5036042;28;20056;-74
2023/06/17 08:44:32;;;;;;;4.28;3.42;;;;;;;;;;5022237;28;20037;-74
2023/06/17 08:47:00;;;;;;;4.22;3.75;;;;;;;;;;5016915;28;20060;-75
2023/06/17 08:49:26;;;;;;;5.07;3.03;;;;;;;;;;5024074;28;20148;-74
2023/06/17 08:51:52;;;;;;;3.25;2.95;;;;;;;;;;5022547;28;20820;-75
2023/06/17 08:54:20;;;;;;;6.57;3.63;;;;;;;;;;5026379;28;20113;-73
2023/06/17 08:56:46;;;;;;;4.47;3.30;;;;;;;;;;5026227;28;20052;-75
2023/06/17 08:59:11;;;;;;;6.13;3.00;;;;;;;;;;5021381;28;20049;-75
2023/06/17 09:01:38;;;;;;;6.63;3.15;;;;;;;;;;5020048;28;20046;-75
2023/06/17 09:04:04;;;;;;;5.07;3.35;;;;;;;;;;5023588;28;20073;-75
2023/06/17 09:06:31;;;;;;;7.32;3.58;;;;;;;;;;5030606;28;20530;-75
2023/06/17 09:08:58;;;;;;;3.63;3.10;;;;;;;;;;5029423;28;20076;-75
2023/06/17 09:11:29;;;;;;;6.20;3.55;;;;;;;;;;5031418;28;20052;-75
2023/06/17 09:13:59;;;;;;;3.53;3.08;;;;;;;;;;5020805;28;20049;-74
2023/06/17 09:16:26;;;;;;;5.05;3.13;;;;;;;;;;5001912;28;20118;-74
2023/06/17 09:18:55;;;;;;;3.92;3.38;;;;;;;;;;5017470;28;20060;-74
2023/06/17 09:21:23;;;;;;;4.72;3.40;;;;;;;;;;5020424;28;20098;-74
2023/06/17 09:24:00;;;;;;;5.10;3.30;;;;;;;;;;5018609;28;20536;-74
2023/06/17 09:26:29;;;;;;;16.13;3.63;;;;;;;;;;5020566;28;20188;-75
2023/06/17 09:29:12;;;;;;;4.45;3.38;;;;;;;;;;4988713;28;20088;-74
2023/06/17 09:31:54;;;;;;;5.00;3.20;;;;;;;;;;5016373;28;20205;-74
2023/06/17 09:34:20;;;;;;;3.45;3.05;;;;;;;;;;5016405;28;20045;-76
2023/06/17 09:36:51;;;;;;;6.90;3.10;;;;;;;;;;5019840;28;20049;-75
2023/06/17 09:39:18;;;;;;;;;;;;;;;;;;5017828;28;20050;-76
2023/06/17 09:41:44;;;;;;;3.92;3.25;;;;;;;;;;5018554;28;19980;-76
2023/06/17 09:44:10;;;;;;;4.20;3.22;;;;;;;;;;5019146;28;20039;-76
2023/06/17 09:46:39;;;;;;;3.25;2.95;;;;;;;;;;5018982;28;20141;-76
2023/06/17 09:49:12;;;;;;;5.22;3.42;;;;;;;;;;5018848;28;20060;-76
2023/06/17 09:51:40;;;;;;;3.70;3.17;;;;;;;;;;5019459;28;21022;-75
2023/06/17 09:54:06;;;;;;;9.65;3.67;;;;;;;;;;5019711;28;20052;-76
2023/06/17 09:56:33;;;;;;;6.43;2.90;;;;;;;;;;5019882;28;20136;-76
2023/06/17 09:58:59;;;;;;;3.63;3.13;;;;;;;;;;5019970;28;20091;-76
2023/06/17 10:01:30;;;;;;;3.55;3.10;;;;;;;;;;5017666;28;20045;-76
2023/06/17 10:03:57;;;;;;;9.27;3.35;;;;;;;;;;5020681;28;20052;-76
2023/06/17 10:06:26;;;;;;;8.30;3.40;;;;;;;;;;5001396;28;20084;-76
2023/06/17 10:08:52;;;;;;;3.72;2.92;;;;;;;;;;5017516;28;20092;-76
2023/06/17 10:11:19;;;;;;;6.85;3.40;;;;;;;;;;5019191;28;20645;-76
2023/06/17 10:14:07;;;;;;;6.05;3.40;;;;;;;;;;5018613;28;20045;-76
2023/06/17 10:16:36;;;;;;;5.35;3.50;;;;;;;;;;5018980;28;20199;-75
2023/06/17 10:19:05;;;;;;;4.88;3.22;;;;;;;;;;5018998;28;20073;-76
2023/06/17 10:21:32;;;;;;;5.35;3.85;;;;;;;;;;5018576;28;20098;-76
2023/06/17 10:24:00;;;;;;;7.82;3.65;;;;;;;;;;5017331;28;20560;-75
2023/06/17 10:26:28;;;;;;;4.43;3.22;;;;;;;;;;5019516;28;20041;-75
2023/06/17 10:28:53;;;;;;;3.60;3.30;;;;;;;;;;5019644;28;20423;-75
2023/06/17 10:31:31;;;;;;;4.57;3.67;;;;;;;;;;5018824;28;20091;-76
2023/06/17 10:34:00;;;;;;;4.90;3.42;;;;;;;;;;5012757;28;20052;-75
2023/06/17 10:36:27;;;;;;;3.83;3.40;;;;;;;;;;5017608;28;20041;-76
2023/06/17 10:38:57;;;;;;;5.13;3.38;;;;;;;;;;5017960;28;20041;-75
2023/06/17 10:41:57;;;;;;;6.40;3.93;;;;;;;;;;5018829;28;20046;-75
2023/06/17 10:44:34;;;;;;;5.50;4.10;;;;;;;;;;5015235;28;20053;-76
2023/06/17 10:47:01;;;;;;;5.15;3.20;;;;;;;;;;5017765;28;20115;-79
2023/06/17 10:49:38;;;;;;;5.45;3.58;;;;;;;;;;5018532;28;20049;-78
2023/06/17 10:52:04;;;;;;;5.53;3.53;;;;;;;;;;5006789;28;20056;-78
2023/06/17 10:54:31;;;;;;;5.55;3.65;;;;;;;;;;5019717;28;20041;-78
2023/06/17 10:56:57;;;;;;;54.75;11.85;;;;;;;;;;5017135;28;20123;-78
2023/06/17 10:59:27;;;;;;;76.35;19.50;;;;;;;;;;5017529;28;20064;-78
2023/06/17 11:02:00;;;;;;;8.43;4.55;;;;;;;;;;5019731;28;20045;-78
2023/06/17 11:04:30;;;;;;;5.35;3.63;;;;;;;;;;4999801;28;20525;-78
2023/06/17 11:07:00;;;;;;;43.78;5.13;;;;;;;;;;5016517;28;20132;-77
2023/06/17 11:09:27;;;;;;;27.98;4.05;;;;;;;;;;5017864;28;20103;-77
2023/06/17 11:11:54;;;;;;;8.55;3.85;;;;;;;;;;5018617;28;20124;-76
2023/06/17 11:14:19;;;;;;;6.57;3.88;;;;;;;;;;5018047;28;20640;-76
2023/06/17 11:16:45;;;;;;;7.00;3.53;;;;;;;;;;5019395;28;20110;-76
2023/06/17 11:19:12;;;;;;;3.88;3.47;;;;;;;;;;5017554;28;20053;-77
2023/06/17 11:21:38;;;;;;;8.57;3.40;;;;;;;;;;5019312;28;20316;-77
2023/06/17 11:24:03;;;;;;;5.50;3.47;;;;;;;;;;5017400;28;20139;-77
2023/06/17 11:26:29;;;;;;;7.20;3.25;;;;;;;;;;5018482;28;20852;-75
2023/06/17 11:28:55;;;;;;;6.90;3.90;;;;;;;;;;5017208;28;20049;-76
2023/06/17 11:31:25;;;;;;;8.80;3.58;;;;;;;;;;5014697;28;20092;-75
2023/06/17 11:33:57;;;;;;;5.40;3.30;;;;;;;;;;5033762;28;20072;-75
2023/06/17 11:36:22;;;;;;;8.43;3.67;;;;;;;;;;5017830;28;20053;-75
2023/06/17 11:38:48;;;;;;;7.53;3.60;;;;;;;;;;5033604;28;20107;-77
2023/06/17 11:41:15;;;;;;;6.32;3.08;;;;;;;;;;5017028;28;20053;-75
2023/06/17 11:43:41;;;;;;;4.90;3.50;;;;;;;;;;5016923;28;20045;-76
2023/06/17 11:46:07;;;;;;;11.57;3.65;;;;;;;;;;5018601;28;20099;-77
2023/06/17 11:48:35;;;;;;;6.13;4.00;;;;;;;;;;5016931;28;20049;-74
2023/06/17 11:51:01;;;;;;;6.80;3.70;;;;;;;;;;5017799;28;20057;-76
2023/06/17 11:53:34;;;;;;;5.72;3.90;;;;;;;;;;5018201;28;20103;-77
2023/06/17 11:56:07;;;;;;;5.75;3.55;;;;;;;;;;5003336;28;20073;-77
2023/06/17 11:58:38;;;;;;;9.15;3.25;;;;;;;;;;5016156;28;20317;-77
2023/06/17 12:01:05;;;;;;;10.90;3.85;;;;;;;;;;5017487;28;20047;-76
2023/06/17 12:03:31;;;;;;;12.45;3.75;;;;;;;;;;5019616;28;20077;-77
2023/06/17 12:05:59;;;;;;;4.13;3.55;;;;;;;;;;5022107;28;20216;-77
2023/06/17 12:08:37;;;;;;;5.95;3.30;;;;;;;;;;5021662;28;20045;-76
2023/06/17 12:11:07;;;;;;;6.65;3.70;;;;;;;;;;5009647;28;20413;-77
2023/06/17 12:13:39;;;;;;;6.80;3.92;;;;;;;;;;5022713;28;20132;-75
2023/06/17 12:16:22;;;;;;;4.90;3.78;;;;;;;;;;5020920;28;20072;-76
2023/06/17 12:18:48;;;;;;;4.80;3.40;;;;;;;;;;5033990;28;20778;-78
2023/06/17 12:21:14;;;;;;;6.78;3.53;;;;;;;;;;5022570;28;20132;-77
2023/06/17 12:23:39;;;;;;;4.68;3.53;;;;;;;;;;5037666;28;20084;-77
2023/06/17 12:26:05;;;;;;;5.78;3.80;;;;;;;;;;5021052;28;20057;-76
2023/06/17 12:28:32;;;;;;;6.13;4.15;;;;;;;;;;5021280;28;20045;-76
2023/06/17 12:30:57;;;;;;;5.88;3.88;;;;;;;;;;5021483;28;20103;-76
2023/06/17 12:33:23;;;;;;;6.97;3.83;;;;;;;;;;5021868;28;20709;-75
2023/06/17 12:35:50;;;;;;;7.72;4.18;;;;;;;;;;5019946;28;20045;-75
2023/06/17 12:38:16;;;;;;;9.15;3.60;;;;;;;;;;5020622;28;20059;-76
2023/06/17 12:40:41;;;;;;;6.90;4.03;;;;;;;;;;5025413;28;20045;-75
2023/06/17 12:43:07;;;;;;;7.97;3.83;;;;;;;;;;5020628;28;20053;-76
2023/06/17 12:45:32;;;;;;;6.22;3.97;;;;;;;;;;5019839;28;20041;-77
2023/06/17 12:47:58;;;;;;;10.55;4.30;;;;;;;;;;5021711;28;20053;-76
2023/06/17 12:50:23;;;;;;;5.63;4.10;;;;;;;;;;5020313;28;20045;-76
2023/06/17 12:52:51;;;;;;;6.28;4.15;;;;;;;;;;5020322;28;20445;-75
2023/06/17 12:55:17;;;;;;;4.03;3.60;;;;;;;;;;5020795;28;20050;-76
2023/06/17 12:57:42;;;;;;;9.85;4.22;;;;;;;;;;5018987;28;20045;-78
2023/06/17 13:00:08;;;;;;;5.65;4.20;;;;;;;;;;5036146;28;20037;-77
2023/06/17 13:02:36;;;;;;;5.03;3.58;;;;;;;;;;5019293;28;21128;-77
2023/06/17 13:05:02;;;;;;;5.50;3.83;;;;;;;;;;5022222;28;20132;-77
2023/06/17 13:07:27;;;;;;;5.80;3.80;;;;;;;;;;5022331;28;20168;-77
2023/06/17 13:09:53;;;;;;;7.47;3.80;;;;;;;;;;5021051;28;20049;-76
2023/06/17 13:12:19;;;;;;;4.80;3.67;;;;;;;;;;5020372;28;20048;-77
2023/06/17 13:14:46;;;;;;;5.82;3.58;;;;;;;;;;5018817;28;20049;-76
2023/06/17 13:17:12;;;;;;;5.60;3.88;;;;;;;;;;5019807;28;20049;-76
2023/06/17 13:19:38;;;;;;;5.15;3.75;;;;;;;;;;5019846;28;20034;-76
2023/06/17 13:22:04;;;;;;;4.20;3.70;;;;;;;;;;5035977;28;20102;-77
2023/06/17 13:24:29;;;;;;;6.35;3.55;;;;;;;;;;5020733;28;20984;-75
2023/06/17 13:26:55;;;;;;;6.03;4.20;;;;;;;;;;5021614;28;20909;-75
2023/06/17 13:29:21;;;;;;;4.53;3.65;;;;;;;;;;5019917;28;20045;-76
2023/06/17 13:31:47;;;;;;;8.65;3.95;;;;;;;;;;5020658;28;20107;-76
2023/06/17 13:34:13;;;;;;;7.72;3.30;;;;;;;;;;5019212;28;20049;-75
2023/06/17 13:36:42;;;;;;;5.40;3.63;;;;;;;;;;5019935;28;20053;-76
2023/06/17 13:39:09;;;;;;;3.97;3.53;;;;;;;;;;5005341;28;20037;-76
2023/06/17 13:41:34;;;;;;;7.40;3.90;;;;;;;;;;5021830;28;20041;-75
2023/06/17 13:44:00;;;;;;;5.60;3.90;;;;;;;;;;5020199;28;20418;-75
2023/06/17 13:46:25;;;;;;;6.88;3.67;;;;;;;;;;5018504;28;20033;-76
2023/06/17 13:48:50;;;;;;;8.80;3.88;;;;;;;;;;5018974;28;20473;-76
2023/06/17 13:51:16;;;;;;;3.95;3.55;;;;;;;;;;5019857;28;20037;-76
2023/06/17 13:53:42;;;;;;;13.80;4.28;;;;;;;;;;5035059;28;20049;-75
2023/06/17 13:56:08;;;;;;;4.97;3.88;;;;;;;;;;5018037;28;20085;-76
2023/06/17 13:58:34;;;;;;;4.90;3.38;;;;;;;;;;5019108;28;20056;-76
2023/06/17 14:01:00;;;;;;;4.57;4.10;;;;;;;;;;5018793;28;20053;-77
2023/06/17 14:03:26;;;;;;;4.72;3.50;;;;;;;;;;5017433;28;20037;-76
2023/06/17 14:05:52;;;;;;;6.72;3.30;;;;;;;;;;5018493;28;20107;-76
2023/06/17 14:08:17;;;;;;;8.73;3.95;;;;;;;;;;5014079;28;20159;-76
2023/06/17 14:10:43;;;;;;;4.95;3.53;;;;;;;;;;5015063;28;20044;-76
2023/06/17 14:13:08;;;;;;;4.57;3.53;;;;;;;;;;5021292;28;20133;-77
2023/06/17 14:15:34;;;;;;;7.75;3.50;;;;;;;;;;5013724;28;20080;-77
2023/06/17 14:17:59;;;;;;;4.85;3.30;;;;;;;;;;5017893;28;20115;-76
2023/06/17 14:20:25;;;;;;;8.27;3.60;;;;;;;;;;5031798;28;20095;-76
2023/06/17 14:22:56;;;;;;;4.75;3.72;;;;;;;;;;5016127;28;20052;-76
2023/06/17 14:25:21;;;;;;;;;;;;;;;;;;5016747;28;20061;-76
2023/06/17 14:27:47;;;;;;;5.45;3.22;;;;;;;;;;5018692;28;19921;-77
2023/06/17 14:30:14;;;;;;;5.03;3.33;;;;;;;;;;5019495;28;20417;-76
2023/06/17 14:32:45;;;;;;;6.57;3.92;;;;;;;;;;5017952;28;20096;-76
2023/06/17 14:35:13;;;;;;;4.82;4.32;;;;;;;;;;5018477;28;20128;-77